sensor_id;sensor_type;location;lat;lon;timestamp;P1;durP1;ratioP1;P2;durP2;ratioP2
64932;SDS011;51446;53.850;10.662;2023-01-28T00:00:00;7.63;;;4.93;;
64932;SDS011;51446;53.850;10.662;2023-01-28T00:02:26;8.45;;;5.00;;
64932;SDS011;51446;53.850;10.662;2023-01-28T00:04:51;6.47;;;4.23;;
64932;SDS011;51446;53.850;10.662;2023-01-28T00:07:16;11.23;;;5.00;;
64932;SDS011;51446;53.850;10.662;2023-01-28T00:09:43;4.93;;;3.88;;
64932;SDS011;51446;53.850;10.662;2023-01-28T00:12:08;5.90;;;4.30;;
64932;SDS011;51446;53.850;10.662;2023-01-28T00:14:33;9.17;;;4.37;;
64932;SDS011;51446;53.850;10.662;2023-01-28T00:16:59;7.60;;;4.60;;
64932;SDS011;51446;53.850;10.662;2023-01-28T00:19:24;7.43;;;4.03;;
64932;SDS011;51446;53.850;10.662;2023-01-28T00:21:49;7.63;;;4.13;;
64932;SDS011;51446;53.850;10.662;2023-01-28T00:24:14;7.40;;;5.27;;
64932;SDS011;51446;53.850;10.662;2023-01-28T00:26:40;6.37;;;4.70;;
64932;SDS011;51446;53.850;10.662;2023-01-28T00:29:05;9.00;;;5.07;;
64932;SDS011;51446;53.850;10.662;2023-01-28T00:31:30;5.73;;;4.30;;
64932;SDS011;51446;53.850;10.662;2023-01-28T00:33:56;6.00;;;4.20;;
64932;SDS011;51446;53.850;10.662;2023-01-28T00:36:22;6.03;;;4.35;;
64932;SDS011;51446;53.850;10.662;2023-01-28T00:38:50;7.00;;;4.50;;
64932;SDS011;51446;53.850;10.662;2023-01-28T00:41:17;6.10;;;4.10;;
64932;SDS011;51446;53.850;10.662;2023-01-28T00:43:45;6.30;;;4.47;;
64932;SDS011;51446;53.850;10.662;2023-01-28T00:46:11;8.13;;;4.20;;
64932;SDS011;51446;53.850;10.662;2023-01-28T00:48:38;5.57;;;4.40;;
64932;SDS011;51446;53.850;10.662;2023-01-28T00:51:04;8.05;;;4.30;;
64932;SDS011;51446;53.850;10.662;2023-01-28T00:53:31;5.13;;;4.63;;
64932;SDS011;51446;53.850;10.662;2023-01-28T00:55:56;7.70;;;4.63;;
64932;SDS011;51446;53.850;10.662;2023-01-28T00:58:22;4.40;;;4.00;;
64932;SDS011;51446;53.850;10.662;2023-01-28T01:00:48;4.50;;;4.00;;
64932;SDS011;51446;53.850;10.662;2023-01-28T01:03:14;7.05;;;4.60;;
64932;SDS011;51446;53.850;10.662;2023-01-28T01:05:39;6.23;;;4.63;;
64932;SDS011;51446;53.850;10.662;2023-01-28T01:08:04;4.53;;;4.13;;
64932;SDS011;51446;53.850;10.662;2023-01-28T01:10:30;6.20;;;4.70;;
64932;SDS011;51446;53.850;10.662;2023-01-28T01:12:55;5.93;;;4.38;;
64932;SDS011;51446;53.850;10.662;2023-01-28T01:15:23;7.05;;;4.60;;
64932;SDS011;51446;53.850;10.662;2023-01-28T01:17:48;5.57;;;4.27;;
64932;SDS011;51446;53.850;10.662;2023-01-28T01:20:18;6.35;;;4.22;;
64932;SDS011;51446;53.850;10.662;2023-01-28T01:22:48;5.80;;;4.50;;
64932;SDS011;51446;53.850;10.662;2023-01-28T01:25:14;7.75;;;4.15;;
64932;SDS011;51446;53.850;10.662;2023-01-28T01:27:40;5.90;;;4.28;;
64932;SDS011;51446;53.850;10.662;2023-01-28T01:30:06;6.88;;;4.40;;
64932;SDS011;51446;53.850;10.662;2023-01-28T01:32:33;7.45;;;4.53;;
64932;SDS011;51446;53.850;10.662;2023-01-28T01:34:59;5.57;;;4.03;;
64932;SDS011;51446;53.850;10.662;2023-01-28T01:37:25;5.37;;;3.90;;
64932;SDS011;51446;53.850;10.662;2023-01-28T01:39:50;5.40;;;3.80;;
64932;SDS011;51446;53.850;10.662;2023-01-28T01:42:16;9.43;;;3.80;;
64932;SDS011;51446;53.850;10.662;2023-01-28T01:49:55;3.87;;;3.50;;
64932;SDS011;51446;53.850;10.662;2023-01-28T01:52:23;5.50;;;4.30;;
64932;SDS011;51446;53.850;10.662;2023-01-28T01:54:55;5.45;;;4.18;;
64932;SDS011;51446;53.850;10.662;2023-01-28T01:57:26;7.43;;;4.43;;
64932;SDS011;51446;53.850;10.662;2023-01-28T01:59:54;7.38;;;4.40;;
64932;SDS011;51446;53.850;10.662;2023-01-28T02:02:20;6.23;;;4.77;;
64932;SDS011;51446;53.850;10.662;2023-01-28T02:04:46;5.22;;;4.25;;
64932;SDS011;51446;53.850;10.662;2023-01-28T02:07:12;5.27;;;4.13;;
64932;SDS011;51446;53.850;10.662;2023-01-28T02:09:39;8.03;;;4.80;;
64932;SDS011;51446;53.850;10.662;2023-01-28T02:12:20;6.93;;;4.07;;
64932;SDS011;51446;53.850;10.662;2023-01-28T02:14:52;7.10;;;4.70;;
64932;SDS011;51446;53.850;10.662;2023-01-28T02:17:20;5.47;;;4.93;;
64932;SDS011;51446;53.850;10.662;2023-01-28T02:20:00;5.50;;;4.67;;
64932;SDS011;51446;53.850;10.662;2023-01-28T02:25:29;6.65;;;4.80;;
64932;SDS011;51446;53.850;10.662;2023-01-28T02:30:50;6.87;;;5.40;;
64932;SDS011;51446;53.850;10.662;2023-01-28T02:36:26;6.55;;;5.40;;
64932;SDS011;51446;53.850;10.662;2023-01-28T02:39:11;6.32;;;5.03;;
64932;SDS011;51446;53.850;10.662;2023-01-28T02:41:46;5.18;;;4.68;;
64932;SDS011;51446;53.850;10.662;2023-01-28T02:44:17;5.20;;;4.40;;
64932;SDS011;51446;53.850;10.662;2023-01-28T02:46:42;6.67;;;4.80;;
64932;SDS011;51446;53.850;10.662;2023-01-28T02:49:30;5.55;;;4.63;;
64932;SDS011;51446;53.850;10.662;2023-01-28T02:52:13;9.02;;;5.15;;
64932;SDS011;51446;53.850;10.662;2023-01-28T02:58:09;6.05;;;4.72;;
64932;SDS011;51446;53.850;10.662;2023-01-28T03:00:45;7.17;;;4.90;;
64932;SDS011;51446;53.850;10.662;2023-01-28T03:03:23;7.43;;;4.35;;
64932;SDS011;51446;53.850;10.662;2023-01-28T03:06:11;5.13;;;4.70;;
64932;SDS011;51446;53.850;10.662;2023-01-28T03:08:46;5.53;;;4.97;;
64932;SDS011;51446;53.850;10.662;2023-01-28T03:11:35;9.68;;;4.70;;
64932;SDS011;51446;53.850;10.662;2023-01-28T03:14:23;8.23;;;5.00;;
64932;SDS011;51446;53.850;10.662;2023-01-28T03:17:14;6.78;;;5.20;;
64932;SDS011;51446;53.850;10.662;2023-01-28T03:20:02;7.18;;;5.18;;
64932;SDS011;51446;53.850;10.662;2023-01-28T03:22:47;5.95;;;5.18;;
64932;SDS011;51446;53.850;10.662;2023-01-28T03:25:36;5.70;;;4.53;;
64932;SDS011;51446;53.850;10.662;2023-01-28T03:28:24;5.47;;;4.63;;
64932;SDS011;51446;53.850;10.662;2023-01-28T03:31:11;6.40;;;4.57;;
64932;SDS011;51446;53.850;10.662;2023-01-28T03:33:57;7.70;;;4.70;;
64932;SDS011;51446;53.850;10.662;2023-01-28T03:36:43;6.57;;;4.97;;
64932;SDS011;51446;53.850;10.662;2023-01-28T03:39:11;8.27;;;5.15;;
64932;SDS011;51446;53.850;10.662;2023-01-28T03:41:36;6.10;;;4.90;;
64932;SDS011;51446;53.850;10.662;2023-01-28T03:44:02;8.03;;;5.10;;
64932;SDS011;51446;53.850;10.662;2023-01-28T03:46:45;8.52;;;4.85;;
64932;SDS011;51446;53.850;10.662;2023-01-28T03:49:12;7.53;;;5.20;;
64932;SDS011;51446;53.850;10.662;2023-01-28T03:51:37;5.97;;;5.30;;
64932;SDS011;51446;53.850;10.662;2023-01-28T03:54:03;9.65;;;4.95;;
64932;SDS011;51446;53.850;10.662;2023-01-28T03:56:28;5.78;;;5.13;;
64932;SDS011;51446;53.850;10.662;2023-01-28T03:58:56;6.70;;;4.80;;
64932;SDS011;51446;53.850;10.662;2023-01-28T04:01:21;6.00;;;4.80;;
64932;SDS011;51446;53.850;10.662;2023-01-28T04:03:47;5.10;;;4.63;;
64932;SDS011;51446;53.850;10.662;2023-01-28T04:06:12;6.20;;;4.75;;
64932;SDS011;51446;53.850;10.662;2023-01-28T04:08:38;7.47;;;4.70;;
64932;SDS011;51446;53.850;10.662;2023-01-28T04:11:03;6.87;;;4.90;;
64932;SDS011;51446;53.850;10.662;2023-01-28T04:13:42;5.10;;;4.53;;
64932;SDS011;51446;53.850;10.662;2023-01-28T04:16:09;8.18;;;4.85;;
64932;SDS011;51446;53.850;10.662;2023-01-28T04:18:38;5.60;;;5.00;;
64932;SDS011;51446;53.850;10.662;2023-01-28T04:21:03;5.32;;;4.57;;
64932;SDS011;51446;53.850;10.662;2023-01-28T04:23:28;7.40;;;4.80;;
64932;SDS011;51446;53.850;10.662;2023-01-28T04:25:54;6.33;;;5.20;;
64932;SDS011;51446;53.850;10.662;2023-01-28T04:28:20;6.53;;;5.28;;
64932;SDS011;51446;53.850;10.662;2023-01-28T04:30:45;6.53;;;4.83;;
64932;SDS011;51446;53.850;10.662;2023-01-28T04:33:11;9.67;;;5.23;;
64932;SDS011;51446;53.850;10.662;2023-01-28T04:35:36;6.78;;;4.90;;
64932;SDS011;51446;53.850;10.662;2023-01-28T04:38:02;6.87;;;4.83;;
64932;SDS011;51446;53.850;10.662;2023-01-28T04:40:27;5.33;;;4.83;;
64932;SDS011;51446;53.850;10.662;2023-01-28T04:42:53;9.33;;;5.20;;
64932;SDS011;51446;53.850;10.662;2023-01-28T04:45:18;7.10;;;5.13;;
64932;SDS011;51446;53.850;10.662;2023-01-28T04:47:44;5.72;;;5.00;;
64932;SDS011;51446;53.850;10.662;2023-01-28T04:50:09;5.25;;;4.75;;
64932;SDS011;51446;53.850;10.662;2023-01-28T04:52:34;6.85;;;5.10;;
64932;SDS011;51446;53.850;10.662;2023-01-28T04:54:59;6.17;;;5.57;;
64932;SDS011;51446;53.850;10.662;2023-01-28T04:57:26;6.03;;;5.37;;
64932;SDS011;51446;53.850;10.662;2023-01-28T04:59:51;8.57;;;5.40;;
64932;SDS011;51446;53.850;10.662;2023-01-28T05:02:16;7.00;;;5.83;;
64932;SDS011;51446;53.850;10.662;2023-01-28T05:04:42;5.90;;;5.27;;
64932;SDS011;51446;53.850;10.662;2023-01-28T05:07:07;12.07;;;5.63;;
64932;SDS011;51446;53.850;10.662;2023-01-28T05:09:32;5.95;;;4.90;;
64932;SDS011;51446;53.850;10.662;2023-01-28T05:11:57;6.63;;;5.22;;
64932;SDS011;51446;53.850;10.662;2023-01-28T05:14:23;6.97;;;5.07;;
64932;SDS011;51446;53.850;10.662;2023-01-28T05:16:49;8.70;;;5.75;;
64932;SDS011;51446;53.850;10.662;2023-01-28T05:19:14;6.82;;;5.50;;
64932;SDS011;51446;53.850;10.662;2023-01-28T05:21:40;6.93;;;5.87;;
64932;SDS011;51446;53.850;10.662;2023-01-28T05:24:05;6.77;;;5.10;;
64932;SDS011;51446;53.850;10.662;2023-01-28T05:26:31;6.40;;;5.60;;
64932;SDS011;51446;53.850;10.662;2023-01-28T05:28:56;7.33;;;5.60;;
64932;SDS011;51446;53.850;10.662;2023-01-28T05:31:21;6.97;;;5.47;;
64932;SDS011;51446;53.850;10.662;2023-01-28T05:33:46;5.83;;;5.23;;
64932;SDS011;51446;53.850;10.662;2023-01-28T05:36:12;8.57;;;6.30;;
64932;SDS011;51446;53.850;10.662;2023-01-28T05:38:37;12.33;;;8.37;;
64932;SDS011;51446;53.850;10.662;2023-01-28T05:41:02;18.30;;;9.27;;
64932;SDS011;51446;53.850;10.662;2023-01-28T05:43:27;10.03;;;7.30;;
64932;SDS011;51446;53.850;10.662;2023-01-28T05:45:53;7.37;;;6.17;;
64932;SDS011;51446;53.850;10.662;2023-01-28T05:48:18;10.30;;;5.50;;
64932;SDS011;51446;53.850;10.662;2023-01-28T05:50:45;7.00;;;5.87;;
64932;SDS011;51446;53.850;10.662;2023-01-28T05:53:11;6.80;;;5.43;;
64932;SDS011;51446;53.850;10.662;2023-01-28T05:55:36;6.57;;;5.77;;
64932;SDS011;51446;53.850;10.662;2023-01-28T05:58:01;11.77;;;6.17;;
64932;SDS011;51446;53.850;10.662;2023-01-28T06:00:27;9.67;;;6.10;;
64932;SDS011;51446;53.850;10.662;2023-01-28T06:02:52;6.63;;;5.90;;
64932;SDS011;51446;53.850;10.662;2023-01-28T06:05:17;14.10;;;6.23;;
64932;SDS011;51446;53.850;10.662;2023-01-28T06:07:43;11.07;;;6.37;;
64932;SDS011;51446;53.850;10.662;2023-01-28T06:10:12;7.90;;;6.40;;
64932;SDS011;51446;53.850;10.662;2023-01-28T06:12:38;9.50;;;6.93;;
64932;SDS011;51446;53.850;10.662;2023-01-28T06:15:04;7.47;;;6.67;;
64932;SDS011;51446;53.850;10.662;2023-01-28T06:17:30;8.27;;;6.22;;
64932;SDS011;51446;53.850;10.662;2023-01-28T06:19:55;9.83;;;6.70;;
64932;SDS011;51446;53.850;10.662;2023-01-28T06:22:20;10.43;;;7.47;;
64932;SDS011;51446;53.850;10.662;2023-01-28T06:24:46;8.57;;;6.33;;
64932;SDS011;51446;53.850;10.662;2023-01-28T06:27:11;7.50;;;6.70;;
64932;SDS011;51446;53.850;10.662;2023-01-28T06:29:36;9.27;;;6.97;;
64932;SDS011;51446;53.850;10.662;2023-01-28T06:32:02;7.75;;;6.40;;
64932;SDS011;51446;53.850;10.662;2023-01-28T06:34:27;10.20;;;6.60;;
64932;SDS011;51446;53.850;10.662;2023-01-28T06:36:53;8.60;;;6.30;;
64932;SDS011;51446;53.850;10.662;2023-01-28T06:39:19;9.30;;;6.80;;
64932;SDS011;51446;53.850;10.662;2023-01-28T06:41:46;9.18;;;6.80;;
64932;SDS011;51446;53.850;10.662;2023-01-28T06:44:11;10.97;;;7.97;;
64932;SDS011;51446;53.850;10.662;2023-01-28T06:46:36;13.87;;;7.43;;
64932;SDS011;51446;53.850;10.662;2023-01-28T06:49:02;11.97;;;7.90;;
64932;SDS011;51446;53.850;10.662;2023-01-28T06:51:27;10.48;;;9.07;;
64932;SDS011;51446;53.850;10.662;2023-01-28T06:53:52;14.47;;;9.00;;
64932;SDS011;51446;53.850;10.662;2023-01-28T06:56:18;15.60;;;8.37;;
64932;SDS011;51446;53.850;10.662;2023-01-28T06:58:43;13.70;;;8.40;;
64932;SDS011;51446;53.850;10.662;2023-01-28T07:01:08;9.57;;;7.80;;
64932;SDS011;51446;53.850;10.662;2023-01-28T07:03:34;11.23;;;8.17;;
64932;SDS011;51446;53.850;10.662;2023-01-28T07:06:00;10.32;;;8.45;;
64932;SDS011;51446;53.850;10.662;2023-01-28T07:08:25;16.37;;;9.43;;
64932;SDS011;51446;53.850;10.662;2023-01-28T07:10:51;13.67;;;8.70;;
64932;SDS011;51446;53.850;10.662;2023-01-28T07:13:16;13.90;;;8.33;;
64932;SDS011;51446;53.850;10.662;2023-01-28T07:15:41;16.23;;;9.30;;
64932;SDS011;51446;53.850;10.662;2023-01-28T07:18:06;10.93;;;7.50;;
64932;SDS011;51446;53.850;10.662;2023-01-28T07:20:32;11.50;;;8.00;;
64932;SDS011;51446;53.850;10.662;2023-01-28T07:22:57;11.70;;;8.20;;
64932;SDS011;51446;53.850;10.662;2023-01-28T07:25:22;11.57;;;7.97;;
64932;SDS011;51446;53.850;10.662;2023-01-28T07:27:48;12.83;;;7.87;;
64932;SDS011;51446;53.850;10.662;2023-01-28T07:30:16;12.23;;;7.78;;
64932;SDS011;51446;53.850;10.662;2023-01-28T07:32:42;11.03;;;8.00;;
64932;SDS011;51446;53.850;10.662;2023-01-28T07:35:07;14.33;;;7.57;;
64932;SDS011;51446;53.850;10.662;2023-01-28T07:37:32;11.23;;;7.45;;
64932;SDS011;51446;53.850;10.662;2023-01-28T07:39:58;9.93;;;7.30;;
64932;SDS011;51446;53.850;10.662;2023-01-28T07:42:23;10.67;;;7.83;;
64932;SDS011;51446;53.850;10.662;2023-01-28T07:44:48;10.70;;;7.50;;
64932;SDS011;51446;53.850;10.662;2023-01-28T07:47:14;15.10;;;7.40;;
64932;SDS011;51446;53.850;10.662;2023-01-28T07:49:39;8.83;;;7.40;;
64932;SDS011;51446;53.850;10.662;2023-01-28T07:52:05;14.33;;;8.60;;
64932;SDS011;51446;53.850;10.662;2023-01-28T07:54:31;9.63;;;7.75;;
64932;SDS011;51446;53.850;10.662;2023-01-28T07:56:57;9.70;;;6.73;;
64932;SDS011;51446;53.850;10.662;2023-01-28T07:59:22;12.23;;;6.50;;
64932;SDS011;51446;53.850;10.662;2023-01-28T08:01:47;8.80;;;6.37;;
64932;SDS011;51446;53.850;10.662;2023-01-28T08:04:12;10.47;;;6.80;;
64932;SDS011;51446;53.850;10.662;2023-01-28T08:06:38;7.63;;;6.83;;
64932;SDS011;51446;53.850;10.662;2023-01-28T08:09:06;10.10;;;6.77;;
64932;SDS011;51446;53.850;10.662;2023-01-28T08:11:32;13.82;;;9.02;;
64932;SDS011;51446;53.850;10.662;2023-01-28T08:13:59;8.63;;;7.28;;
64932;SDS011;51446;53.850;10.662;2023-01-28T08:16:24;9.00;;;6.70;;
64932;SDS011;51446;53.850;10.662;2023-01-28T08:18:51;7.90;;;6.90;;
64932;SDS011;51446;53.850;10.662;2023-01-28T08:21:16;6.70;;;6.00;;
64932;SDS011;51446;53.850;10.662;2023-01-28T08:23:42;6.33;;;4.80;;
64932;SDS011;51446;53.850;10.662;2023-01-28T08:26:07;6.27;;;5.27;;
64932;SDS011;51446;53.850;10.662;2023-01-28T08:28:32;7.67;;;4.70;;
64932;SDS011;51446;53.850;10.662;2023-01-28T08:31:01;10.63;;;4.30;;
64932;SDS011;51446;53.850;10.662;2023-01-28T08:33:27;10.07;;;4.43;;
64932;SDS011;51446;53.850;10.662;2023-01-28T08:35:52;5.07;;;3.43;;
64932;SDS011;51446;53.850;10.662;2023-01-28T08:38:17;5.43;;;3.23;;
64932;SDS011;51446;53.850;10.662;2023-01-28T08:40:44;6.75;;;3.50;;
64932;SDS011;51446;53.850;10.662;2023-01-28T08:43:10;3.87;;;3.47;;
64932;SDS011;51446;53.850;10.662;2023-01-28T08:45:35;5.80;;;3.10;;
64932;SDS011;51446;53.850;10.662;2023-01-28T08:48:02;6.03;;;3.23;;
64932;SDS011;51446;53.850;10.662;2023-01-28T08:50:30;6.43;;;3.30;;
64932;SDS011;51446;53.850;10.662;2023-01-28T08:53:02;5.78;;;3.53;;
64932;SDS011;51446;53.850;10.662;2023-01-28T08:55:28;5.85;;;3.35;;
64932;SDS011;51446;53.850;10.662;2023-01-28T08:57:54;7.22;;;3.60;;
64932;SDS011;51446;53.850;10.662;2023-01-28T09:00:20;7.20;;;4.63;;
64932;SDS011;51446;53.850;10.662;2023-01-28T09:02:46;6.40;;;4.80;;
64932;SDS011;51446;53.850;10.662;2023-01-28T09:05:15;6.80;;;4.90;;
64932;SDS011;51446;53.850;10.662;2023-01-28T09:07:40;9.70;;;5.20;;
64932;SDS011;51446;53.850;10.662;2023-01-28T09:10:05;7.20;;;5.20;;
64932;SDS011;51446;53.850;10.662;2023-01-28T09:12:31;6.57;;;5.60;;
64932;SDS011;51446;53.850;10.662;2023-01-28T09:14:56;6.67;;;5.60;;
64932;SDS011;51446;53.850;10.662;2023-01-28T09:17:22;7.13;;;5.88;;
64932;SDS011;51446;53.850;10.662;2023-01-28T09:19:47;6.90;;;5.87;;
64932;SDS011;51446;53.850;10.662;2023-01-28T09:22:13;7.25;;;5.53;;
64932;SDS011;51446;53.850;10.662;2023-01-28T09:24:38;6.45;;;5.65;;
64932;SDS011;51446;53.850;10.662;2023-01-28T09:27:03;8.50;;;5.80;;
64932;SDS011;51446;53.850;10.662;2023-01-28T09:29:29;6.57;;;5.80;;
64932;SDS011;51446;53.850;10.662;2023-01-28T09:31:54;8.60;;;5.67;;
64932;SDS011;51446;53.850;10.662;2023-01-28T09:34:19;8.83;;;6.00;;
64932;SDS011;51446;53.850;10.662;2023-01-28T09:36:44;10.30;;;6.33;;
64932;SDS011;51446;53.850;10.662;2023-01-28T09:39:10;8.30;;;6.20;;
64932;SDS011;51446;53.850;10.662;2023-01-28T09:41:55;6.87;;;6.17;;
64932;SDS011;51446;53.850;10.662;2023-01-28T09:47:37;6.70;;;5.82;;
64932;SDS011;51446;53.850;10.662;2023-01-28T09:50:10;9.47;;;5.77;;
64932;SDS011;51446;53.850;10.662;2023-01-28T09:52:39;6.65;;;5.40;;
64932;SDS011;51446;53.850;10.662;2023-01-28T09:55:17;10.82;;;5.57;;
64932;SDS011;51446;53.850;10.662;2023-01-28T09:57:49;11.35;;;6.18;;
64932;SDS011;51446;53.850;10.662;2023-01-28T10:00:21;7.05;;;6.10;;
64932;SDS011;51446;53.850;10.662;2023-01-28T10:02:54;7.47;;;5.67;;
64932;SDS011;51446;53.850;10.662;2023-01-28T10:16:51;5.83;;;5.03;;
64932;SDS011;51446;53.850;10.662;2023-01-28T10:19:26;7.38;;;5.22;;
64932;SDS011;51446;53.850;10.662;2023-01-28T10:21:59;6.03;;;5.07;;
64932;SDS011;51446;53.850;10.662;2023-01-28T10:24:30;9.50;;;5.53;;
64932;SDS011;51446;53.850;10.662;2023-01-28T10:26:59;10.20;;;6.65;;
64932;SDS011;51446;53.850;10.662;2023-01-28T10:29:26;7.10;;;5.87;;
64932;SDS011;51446;53.850;10.662;2023-01-28T10:32:04;8.27;;;5.80;;
64932;SDS011;51446;53.850;10.662;2023-01-28T10:34:39;7.78;;;5.30;;
64932;SDS011;51446;53.850;10.662;2023-01-28T10:37:04;6.53;;;5.73;;
64932;SDS011;51446;53.850;10.662;2023-01-28T10:39:30;8.90;;;6.00;;
64932;SDS011;51446;53.850;10.662;2023-01-28T10:41:55;8.80;;;5.60;;
64932;SDS011;51446;53.850;10.662;2023-01-28T10:44:25;6.20;;;5.40;;
64932;SDS011;51446;53.850;10.662;2023-01-28T10:46:56;7.35;;;5.03;;
64932;SDS011;51446;53.850;10.662;2023-01-28T10:49:26;7.88;;;5.05;;
64932;SDS011;51446;53.850;10.662;2023-01-28T10:51:53;5.45;;;4.90;;
64932;SDS011;51446;53.850;10.662;2023-01-28T10:54:22;7.87;;;5.33;;
64932;SDS011;51446;53.850;10.662;2023-01-28T10:56:49;8.07;;;5.47;;
64932;SDS011;51446;53.850;10.662;2023-01-28T10:59:25;7.75;;;6.18;;
64932;SDS011;51446;53.850;10.662;2023-01-28T11:01:59;9.27;;;6.15;;
64932;SDS011;51446;53.850;10.662;2023-01-28T11:04:31;10.18;;;6.38;;
64932;SDS011;51446;53.850;10.662;2023-01-28T11:07:00;8.10;;;6.43;;
64932;SDS011;51446;53.850;10.662;2023-01-28T11:09:30;7.23;;;5.97;;
64932;SDS011;51446;53.850;10.662;2023-01-28T11:11:58;8.45;;;6.20;;
64932;SDS011;51446;53.850;10.662;2023-01-28T11:14:36;8.80;;;6.10;;
64932;SDS011;51446;53.850;10.662;2023-01-28T11:17:01;8.00;;;5.87;;
64932;SDS011;51446;53.850;10.662;2023-01-28T11:19:28;7.97;;;6.20;;
64932;SDS011;51446;53.850;10.662;2023-01-28T11:21:58;8.35;;;6.15;;
64932;SDS011;51446;53.850;10.662;2023-01-28T11:24:27;9.50;;;6.30;;
64932;SDS011;51446;53.850;10.662;2023-01-28T11:26:56;12.60;;;6.05;;
64932;SDS011;51446;53.850;10.662;2023-01-28T11:29:29;8.50;;;5.38;;
64932;SDS011;51446;53.850;10.662;2023-01-28T11:31:56;8.40;;;6.28;;
64932;SDS011;51446;53.850;10.662;2023-01-28T11:34:29;7.13;;;5.60;;
64932;SDS011;51446;53.850;10.662;2023-01-28T11:37:01;6.00;;;5.10;;
64932;SDS011;51446;53.850;10.662;2023-01-28T11:39:30;7.05;;;5.72;;
64932;SDS011;51446;53.850;10.662;2023-01-28T11:42:02;8.40;;;5.43;;
64932;SDS011;51446;53.850;10.662;2023-01-28T11:44:42;6.22;;;4.72;;
64932;SDS011;51446;53.850;10.662;2023-01-28T11:47:16;6.73;;;4.60;;
64932;SDS011;51446;53.850;10.662;2023-01-28T11:52:33;8.65;;;5.53;;
64932;SDS011;51446;53.850;10.662;2023-01-28T11:58:20;8.70;;;5.60;;
64932;SDS011;51446;53.850;10.662;2023-01-28T12:01:20;7.43;;;4.93;;
64932;SDS011;51446;53.850;10.662;2023-01-28T12:04:21;6.47;;;5.03;;
64932;SDS011;51446;53.850;10.662;2023-01-28T12:09:45;7.20;;;5.18;;
64932;SDS011;51446;53.850;10.662;2023-01-28T12:18:21;8.63;;;5.57;;
64932;SDS011;51446;53.850;10.662;2023-01-28T12:21:03;8.23;;;6.30;;
64932;SDS011;51446;53.850;10.662;2023-01-28T12:26:12;8.98;;;6.22;;
64932;SDS011;51446;53.850;10.662;2023-01-28T12:37:06;10.15;;;7.40;;
64932;SDS011;51446;53.850;10.662;2023-01-28T12:42:29;9.52;;;6.22;;
64932;SDS011;51446;53.850;10.662;2023-01-28T12:45:25;7.43;;;6.63;;
64932;SDS011;51446;53.850;10.662;2023-01-28T12:47:57;8.77;;;6.72;;
64932;SDS011;51446;53.850;10.662;2023-01-28T12:50:28;8.07;;;6.50;;
64932;SDS011;51446;53.850;10.662;2023-01-28T12:53:02;7.90;;;6.87;;
64932;SDS011;51446;53.850;10.662;2023-01-28T12:55:42;11.52;;;7.22;;
64932;SDS011;51446;53.850;10.662;2023-01-28T12:58:16;10.73;;;7.30;;
64932;SDS011;51446;53.850;10.662;2023-01-28T13:00:53;10.85;;;6.63;;
64932;SDS011;51446;53.850;10.662;2023-01-28T13:03:26;8.30;;;7.05;;
64932;SDS011;51446;53.850;10.662;2023-01-28T13:07:01;8.23;;;7.20;;
64932;SDS011;51446;53.850;10.662;2023-01-28T13:09:15;9.95;;;7.47;;
64932;SDS011;51446;53.850;10.662;2023-01-28T13:11:43;9.63;;;6.90;;
64932;SDS011;51446;53.850;10.662;2023-01-28T13:14:11;9.80;;;6.78;;
64932;SDS011;51446;53.850;10.662;2023-01-28T13:16:37;11.88;;;7.40;;
64932;SDS011;51446;53.850;10.662;2023-01-28T13:19:06;8.60;;;7.10;;
64932;SDS011;51446;53.850;10.662;2023-01-28T13:21:41;10.00;;;6.90;;
64932;SDS011;51446;53.850;10.662;2023-01-28T13:26:43;12.53;;;7.60;;
64932;SDS011;51446;53.850;10.662;2023-01-28T13:29:31;10.07;;;6.80;;
64932;SDS011;51446;53.850;10.662;2023-01-28T13:31:58;10.13;;;7.50;;
64932;SDS011;51446;53.850;10.662;2023-01-28T13:34:36;10.20;;;7.50;;
64932;SDS011;51446;53.850;10.662;2023-01-28T13:40:23;14.57;;;8.83;;
64932;SDS011;51446;53.850;10.662;2023-01-28T13:42:58;11.23;;;8.43;;
64932;SDS011;51446;53.850;10.662;2023-01-28T13:45:29;11.50;;;8.60;;
64932;SDS011;51446;53.850;10.662;2023-01-28T13:47:59;11.88;;;8.82;;
64932;SDS011;51446;53.850;10.662;2023-01-28T13:50:36;12.18;;;8.40;;
64932;SDS011;51446;53.850;10.662;2023-01-28T13:53:51;10.73;;;8.13;;
64932;SDS011;51446;53.850;10.662;2023-01-28T13:56:16;11.27;;;8.63;;
64932;SDS011;51446;53.850;10.662;2023-01-28T14:04:42;16.05;;;9.45;;
64932;SDS011;51446;53.850;10.662;2023-01-28T14:07:22;12.90;;;8.97;;
64932;SDS011;51446;53.850;10.662;2023-01-28T14:10:06;12.45;;;9.05;;
64932;SDS011;51446;53.850;10.662;2023-01-28T14:18:24;13.75;;;9.98;;
64932;SDS011;51446;53.850;10.662;2023-01-28T14:20:52;19.00;;;9.60;;
64932;SDS011;51446;53.850;10.662;2023-01-28T14:23:20;15.00;;;9.63;;
64932;SDS011;51446;53.850;10.662;2023-01-28T14:25:53;18.40;;;10.07;;
64932;SDS011;51446;53.850;10.662;2023-01-28T14:34:09;14.53;;;9.80;;
64932;SDS011;51446;53.850;10.662;2023-01-28T14:36:58;13.45;;;9.32;;
64932;SDS011;51446;53.850;10.662;2023-01-28T14:39:27;17.35;;;10.25;;
64932;SDS011;51446;53.850;10.662;2023-01-28T14:41:56;14.65;;;9.63;;
64932;SDS011;51446;53.850;10.662;2023-01-28T14:50:29;13.93;;;9.57;;
64932;SDS011;51446;53.850;10.662;2023-01-28T14:53:12;16.48;;;10.40;;
64932;SDS011;51446;53.850;10.662;2023-01-28T14:58:34;16.17;;;9.77;;
64932;SDS011;51446;53.850;10.662;2023-01-28T15:01:04;16.73;;;10.83;;
64932;SDS011;51446;53.850;10.662;2023-01-28T15:03:29;15.37;;;10.20;;
64932;SDS011;51446;53.850;10.662;2023-01-28T15:06:12;15.32;;;10.75;;
64932;SDS011;51446;53.850;10.662;2023-01-28T15:08:39;15.10;;;10.55;;
64932;SDS011;51446;53.850;10.662;2023-01-28T15:11:05;15.20;;;10.50;;
64932;SDS011;51446;53.850;10.662;2023-01-28T15:13:38;16.73;;;10.70;;
64932;SDS011;51446;53.850;10.662;2023-01-28T15:16:11;17.88;;;9.85;;
64932;SDS011;51446;53.850;10.662;2023-01-28T15:18:41;14.27;;;9.50;;
64932;SDS011;51446;53.850;10.662;2023-01-28T15:21:08;14.02;;;10.38;;
64932;SDS011;51446;53.850;10.662;2023-01-28T15:23:35;14.35;;;10.23;;
64932;SDS011;51446;53.850;10.662;2023-01-28T15:26:06;17.17;;;10.40;;
64932;SDS011;51446;53.850;10.662;2023-01-28T15:28:36;15.93;;;11.23;;
64932;SDS011;51446;53.850;10.662;2023-01-28T15:31:03;19.50;;;10.40;;
64932;SDS011;51446;53.850;10.662;2023-01-28T15:33:30;16.75;;;9.73;;
64932;SDS011;51446;53.850;10.662;2023-01-28T15:35:56;14.23;;;9.70;;
64932;SDS011;51446;53.850;10.662;2023-01-28T15:38:23;17.83;;;11.00;;
64932;SDS011;51446;53.850;10.662;2023-01-28T15:40:58;16.02;;;11.60;;
64932;SDS011;51446;53.850;10.662;2023-01-28T15:43:35;16.33;;;10.68;;
64932;SDS011;51446;53.850;10.662;2023-01-28T15:46:02;16.67;;;11.13;;
64932;SDS011;51446;53.850;10.662;2023-01-28T15:48:32;14.93;;;11.02;;
64932;SDS011;51446;53.850;10.662;2023-01-28T15:51:05;16.05;;;10.85;;
64932;SDS011;51446;53.850;10.662;2023-01-28T15:53:34;15.85;;;11.07;;
64932;SDS011;51446;53.850;10.662;2023-01-28T15:56:07;16.90;;;10.70;;
64932;SDS011;51446;53.850;10.662;2023-01-28T15:58:34;18.03;;;11.83;;
64932;SDS011;51446;53.850;10.662;2023-01-28T16:03:33;16.63;;;10.48;;
64932;SDS011;51446;53.850;10.662;2023-01-28T16:06:03;16.42;;;12.52;;
64932;SDS011;51446;53.850;10.662;2023-01-28T16:10:57;21.00;;;10.87;;
64932;SDS011;51446;53.850;10.662;2023-01-28T16:13:24;15.70;;;11.07;;
64932;SDS011;51446;53.850;10.662;2023-01-28T16:15:52;18.15;;;11.18;;
64932;SDS011;51446;53.850;10.662;2023-01-28T16:18:37;18.97;;;11.43;;